Time;durP1;ratioP1;P1;durP2;ratioP2;P2;SDS_P1;SDS_P2;PMS_P1;PMS_P2;Temp;Humidity;BMP_temperature;BMP_pressure;BME280_temperature;BME280_humidity;BME280_pressure;Samples;Min_cycle;Max_cycle;Signal;HPM_P1;HPM_P2
2023/05/23 00:00:53;;;;;;;109.67;3.33;;;20.10;53.70;;;;;;5052523;28;20290;-72
2023/05/23 00:03:21;;;;;;;110.03;3.80;;;20.00;54.50;;;;;;5052072;28;20488;-72
2023/05/23 00:05:47;;;;;;;109.40;3.60;;;20.00;54.40;;;;;;5052593;28;20173;-71
2023/05/23 00:08:13;;;;;;;109.63;3.70;;;20.00;53.90;;;;;;5052725;28;20401;-72
2023/05/23 00:10:38;;;;;;;112.23;4.07;;;20.10;53.10;;;;;;5052167;28;20514;-73
2023/05/23 00:13:08;;;;;;;110.07;3.60;;;20.00;53.40;;;;;;5051873;28;20294;-72
2023/05/23 00:15:36;;;;;;;109.47;3.37;;;20.00;53.60;;;;;;5052345;28;20172;-72
2023/05/23 00:18:02;;;;;;;112.57;4.10;;;20.10;53.20;;;;;;5051090;28;20411;-73
2023/05/23 00:20:29;;;;;;;111.40;3.57;;;20.10;53.50;;;;;;5052110;28;20457;-72
2023/05/23 00:22:57;;;;;;;110.93;3.73;;;20.00;53.70;;;;;;5050140;28;20186;-72
2023/05/23 00:25:23;;;;;;;109.10;3.30;;;20.00;54.00;;;;;;5052272;28;20442;-72
2023/05/23 00:27:49;;;;;;;109.47;3.53;;;20.00;55.30;;;;;;5044284;28;20477;-72
2023/05/23 00:30:15;;;;;;;109.50;3.60;;;20.10;54.60;;;;;;5043907;28;20476;-72
2023/05/23 00:32:41;;;;;;;109.60;3.90;;;20.20;54.80;;;;;;5050073;28;20852;-73
2023/05/23 00:35:07;;;;;;;110.90;4.10;;;20.10;55.50;;;;;;5047228;28;20558;-72
2023/05/23 00:37:33;;;;;;;109.57;3.90;;;20.30;54.30;;;;;;5032008;28;20168;-72
2023/05/23 00:39:59;;;;;;;110.87;4.00;;;20.30;55.00;;;;;;5031537;28;20465;-72
2023/05/23 00:42:24;;;;;;;112.67;4.87;;;20.20;55.20;;;;;;5032038;28;20167;-72
2023/05/23 00:44:50;;;;;;;109.30;3.60;;;20.30;55.50;;;;;;5042745;28;20440;-73
2023/05/23 00:47:16;;;;;;;115.77;5.03;;;20.30;55.30;;;;;;5051974;28;20637;-74
2023/05/23 00:49:43;;;;;;;109.30;3.50;;;20.40;54.70;;;;;;5051646;28;20262;-72
2023/05/23 00:52:09;;;;;;;109.47;3.67;;;20.60;52.90;;;;;;5051917;28;20417;-73
2023/05/23 00:54:36;;;;;;;109.37;3.80;;;20.70;53.40;;;;;;5051116;28;20475;-73
2023/05/23 00:57:02;;;;;;;109.77;3.40;;;20.60;54.40;;;;;;5051715;28;20415;-73
2023/05/23 00:59:29;;;;;;;109.07;3.50;;;20.60;54.10;;;;;;5051193;28;20402;-73
2023/05/23 01:01:57;;;;;;;108.67;3.27;;;20.80;52.90;;;;;;5038457;28;20472;-73
2023/05/23 01:04:25;;;;;;;109.17;3.43;;;20.70;53.60;;;;;;5030987;28;20818;-73
2023/05/23 01:06:53;;;;;;;108.80;3.47;;;20.70;54.00;;;;;;5031748;28;20399;-73
2023/05/23 01:09:20;;;;;;;109.47;3.83;;;20.60;54.60;;;;;;5031483;28;20473;-73
2023/05/23 01:11:54;;;;;;;110.40;3.80;;;20.70;54.70;;;;;;5031435;28;20522;-72
2023/05/23 01:14:24;;;;;;;109.30;3.40;;;20.90;53.70;;;;;;5030715;28;20805;-73
2023/05/23 01:16:57;;;;;;;109.37;3.70;;;20.80;53.90;;;;;;5031507;28;20401;-73
2023/05/23 01:20:00;;;;;;;110.10;4.30;;;20.80;54.60;;;;;;5029960;28;20485;-73
2023/05/23 01:23:14;;;;;;;109.17;3.47;;;20.80;54.60;;;;;;5031743;28;20451;-73
2023/05/23 01:26:15;;;;;;;109.07;3.50;;;20.80;54.90;;;;;;5014867;28;20415;-73
2023/05/23 01:28:46;;;;;;;109.40;3.60;;;20.80;56.50;;;;;;5031131;28;20469;-72
2023/05/23 01:31:12;;;;;;;110.47;4.60;;;18.10;53.30;;;;;;5031445;28;20422;-73
2023/05/23 01:33:39;;;;;;;110.30;4.40;;;21.00;53.90;;;;;;5030791;28;20425;-73
2023/05/23 01:36:06;;;;;;;110.40;4.00;;;20.90;55.20;;;;;;5044554;28;20952;-73
2023/05/23 01:38:31;;;;;;;109.67;3.90;;;21.00;54.80;;;;;;5051179;28;20409;-73
2023/05/23 01:40:57;;;;;;;109.80;4.07;;;20.90;54.10;;;;;;5050774;28;20464;-74
2023/05/23 01:43:24;;;;;;;109.20;3.50;;;21.00;54.10;;;;;;5050458;28;20813;-72
2023/05/23 01:45:52;;;;;;;112.60;4.00;;;21.00;54.40;;;;;;5051103;28;20164;-74
2023/05/23 01:48:17;;;;;;;111.60;4.27;;;21.00;53.70;;;;;;5051264;28;20501;-73
2023/05/23 01:50:46;;;;;;;109.87;3.90;;;21.00;54.00;;;;;;5049645;28;20603;-74
2023/05/23 01:53:14;;;;;;;109.27;3.87;;;21.30;51.10;;;;;;5053799;28;20200;-73
2023/05/23 01:55:41;;;;;;;109.40;3.70;;;21.30;51.30;;;;;;5054746;28;20445;-73
2023/05/23 01:58:07;;;;;;;109.60;3.80;;;21.30;52.80;;;;;;5053796;28;20482;-73
2023/05/23 02:00:33;;;;;;;109.77;3.73;;;21.30;53.20;;;;;;5054750;28;20469;-73
2023/05/23 02:02:59;;;;;;;108.93;3.20;;;21.30;53.50;;;;;;5052993;28;20418;-75
2023/05/23 02:05:26;;;;;;;108.97;3.10;;;21.30;52.60;;;;;;5053717;28;20175;-73
2023/05/23 02:07:51;;;;;;;110.60;4.30;;;21.30;53.10;;;;;;5054637;28;20170;-74
2023/05/23 02:10:18;;;;;;;110.60;4.07;;;21.30;52.80;;;;;;5054350;28;20465;-73
2023/05/23 02:12:43;;;;;;;111.07;4.20;;;21.20;53.50;;;;;;5052975;28;20186;-73
2023/05/23 02:15:09;;;;;;;110.67;4.57;;;21.10;54.40;;;;;;5053441;28;20414;-73
2023/05/23 02:17:35;;;;;;;109.70;3.37;;;21.20;53.50;;;;;;5054585;28;20178;-73
2023/05/23 02:20:01;;;;;;;110.70;4.37;;;21.30;53.20;;;;;;5054475;28;20457;-73
2023/05/23 02:22:26;;;;;;;109.90;3.93;;;21.20;53.80;;;;;;5054365;28;20256;-73
2023/05/23 02:24:52;;;;;;;109.50;3.90;;;21.20;54.30;;;;;;5053771;28;20176;-73
2023/05/23 02:27:18;;;;;;;111.17;4.40;;;21.00;55.10;;;;;;5054681;28;20168;-73
2023/05/23 02:29:44;;;;;;;109.07;3.30;;;21.20;54.80;;;;;;5054141;28;20674;-73
2023/05/23 02:32:09;;;;;;;109.93;3.83;;;21.20;54.60;;;;;;5053201;28;20420;-73
2023/05/23 02:34:37;;;;;;;113.50;4.60;;;21.40;52.80;;;;;;5052498;28;20183;-73
2023/05/23 02:37:02;;;;;;;112.00;4.53;;;21.40;52.60;;;;;;5034437;28;20708;-74
2023/05/23 02:39:28;;;;;;;112.50;5.33;;;21.00;52.90;;;;;;5033865;28;20415;-72
2023/05/23 02:41:53;;;;;;;115.77;6.13;;;21.10;54.70;;;;;;5034228;28;20199;-73
2023/05/23 02:44:19;;;;;;;112.70;5.30;;;21.20;53.60;;;;;;5033734;28;20225;-73
2023/05/23 02:46:45;;;;;;;113.77;4.73;;;21.00;52.90;;;;;;5033883;28;20171;-72
2023/05/23 02:49:11;;;;;;;114.97;5.80;;;21.10;54.50;;;;;;5034203;28;20196;-73
2023/05/23 02:51:36;;;;;;;109.67;3.67;;;21.10;52.10;;;;;;5032608;28;20203;-73
2023/05/23 02:54:02;;;;;;;110.40;4.20;;;20.90;53.80;;;;;;5033352;28;20176;-73
2023/05/23 02:56:28;;;;;;;110.80;4.00;;;21.10;54.40;;;;;;5033812;28;20172;-72
2023/05/23 02:58:53;;;;;;;110.10;4.20;;;21.30;53.80;;;;;;5033807;28;20248;-72
2023/05/23 03:01:19;;;;;;;110.70;4.63;;;21.20;53.20;;;;;;5033680;28;20208;-73
2023/05/23 03:03:45;;;;;;;112.40;5.07;;;20.90;52.20;;;;;;5031750;28;20175;-73
2023/05/23 03:06:13;;;;;;;113.77;4.80;;;21.00;54.00;;;;;;5033818;28;20174;-73
2023/05/23 03:08:39;;;;;;;113.70;5.53;;;21.40;52.00;;;;;;5033393;28;20181;-73
2023/05/23 03:11:05;;;;;;;111.27;4.60;;;21.60;50.00;;;;;;5033747;28;20928;-74
2023/05/23 03:13:30;;;;;;;112.70;5.23;;;21.60;51.50;;;;;;5031844;28;20458;-73
2023/05/23 03:15:56;;;;;;;111.30;4.70;;;21.60;52.50;;;;;;5033480;28;20173;-73
2023/05/23 03:18:21;;;;;;;118.20;6.37;;;21.50;52.20;;;;;;5033637;28;20253;-72
2023/05/23 03:20:47;;;;;;;109.80;4.20;;;21.40;51.90;;;;;;5033383;28;20238;-73
2023/05/23 03:23:13;;;;;;;110.50;4.37;;;19.30;50.00;;;;;;5032885;28;20193;-73
2023/05/23 03:25:38;;;;;;;114.60;4.87;;;21.50;52.50;;;;;;5032057;28;20196;-73
2023/05/23 03:28:04;;;;;;;114.30;4.13;;;21.40;53.00;;;;;;5033526;28;20173;-73
2023/05/23 03:30:29;;;;;;;109.47;4.10;;;21.40;53.00;;;;;;5055150;28;20218;-73
2023/05/23 03:32:55;;;;;;;116.93;5.37;;;21.40;53.50;;;;;;5072711;28;20647;-73
2023/05/23 03:35:20;;;;;;;110.40;4.60;;;21.40;53.80;;;;;;5065793;28;20226;-73
2023/05/23 03:37:46;;;;;;;114.87;5.40;;;21.00;53.20;;;;;;5052959;28;20255;-73
2023/05/23 03:40:12;;;;;;;110.67;4.60;;;20.50;55.70;;;;;;5051736;28;20215;-73
2023/05/23 03:42:38;;;;;;;111.40;4.57;;;20.00;57.30;;;;;;5052430;28;20172;-73
2023/05/23 03:45:05;;;;;;;109.60;3.87;;;20.00;57.30;;;;;;5052895;28;20163;-73
2023/05/23 03:47:30;;;;;;;109.67;4.10;;;20.00;57.90;;;;;;5051732;28;20437;-72
2023/05/23 03:49:56;;;;;;;110.17;4.03;;;19.80;57.70;;;;;;5053417;28;20429;-73
2023/05/23 03:52:22;;;;;;;110.70;4.33;;;19.70;58.40;;;;;;5052901;28;20648;-73
2023/05/23 03:54:47;;;;;;;109.77;4.10;;;19.70;59.80;;;;;;5052226;28;20684;-73
2023/05/23 03:57:13;;;;;;;111.07;4.43;;;20.20;56.90;;;;;;5052751;28;20418;-73
2023/05/23 03:59:38;;;;;;;110.33;4.03;;;20.20;56.80;;;;;;5052488;28;20208;-72
2023/05/23 04:02:04;;;;;;;114.40;4.13;;;20.20;56.40;;;;;;5052720;28;20638;-73
2023/05/23 04:04:30;;;;;;;112.20;4.47;;;19.90;57.90;;;;;;5051769;28;20174;-73
2023/05/23 04:06:58;;;;;;;109.83;4.50;;;19.70;58.50;;;;;;5052422;28;20410;-73
2023/05/23 04:09:23;;;;;;;109.23;3.80;;;20.00;57.90;;;;;;5052338;28;20415;-73
2023/05/23 04:11:50;;;;;;;109.27;3.57;;;20.20;57.90;;;;;;5052526;28;20402;-73
2023/05/23 04:14:16;;;;;;;111.33;3.93;;;20.30;57.10;;;;;;5051485;28;20203;-73
2023/05/23 04:16:43;;;;;;;109.93;4.33;;;20.20;55.80;;;;;;5050782;28;20809;-74
2023/05/23 04:19:09;;;;;;;109.73;3.87;;;20.10;56.70;;;;;;5052483;28;20406;-73
2023/05/23 04:21:34;;;;;;;109.93;4.00;;;20.30;57.30;;;;;;5052191;28;20466;-73
2023/05/23 04:24:01;;;;;;;111.40;4.53;;;20.30;56.80;;;;;;5051884;28;20164;-74
2023/05/23 04:26:27;;;;;;;109.63;4.00;;;20.40;56.60;;;;;;5050915;28;20175;-74
2023/05/23 04:28:53;;;;;;;109.50;3.90;;;20.80;54.20;;;;;;5052210;28;20443;-74
2023/05/23 04:31:22;;;;;;;112.37;4.37;;;20.90;54.30;;;;;;5051340;28;21012;-75
2023/05/23 04:33:48;;;;;;;110.87;5.17;;;21.10;52.40;;;;;;5050162;28;20925;-74
2023/05/23 04:36:14;;;;;;;110.80;4.30;;;21.10;52.60;;;;;;5052029;28;20501;-74
2023/05/23 04:38:40;;;;;;;110.20;4.33;;;21.20;53.50;;;;;;5051832;28;20247;-73
2023/05/23 04:41:06;;;;;;;109.47;3.73;;;21.10;53.80;;;;;;5051984;28;20852;-74
2023/05/23 04:43:32;;;;;;;111.83;4.90;;;21.20;54.30;;;;;;5049947;28;20225;-74
2023/05/23 04:46:01;;;;;;;110.20;3.40;;;21.10;54.90;;;;;;5052036;28;20414;-74
2023/05/23 04:48:26;;;;;;;110.67;4.67;;;21.30;53.90;;;;;;5051399;28;20490;-74
2023/05/23 04:50:54;;;;;;;119.80;4.13;;;21.50;52.80;;;;;;5051687;28;20549;-74
2023/05/23 04:53:21;;;;;;;111.20;4.50;;;21.50;52.40;;;;;;5051183;28;20168;-74
2023/05/23 04:55:46;;;;;;;110.60;4.50;;;21.50;51.90;;;;;;5078424;22;20496;-71
2023/05/23 04:58:12;;;;;;;109.57;3.77;;;21.50;51.80;;;;;;5069496;28;20425;-69
2023/05/23 05:00:38;;;;;;;108.80;3.40;;;21.60;51.30;;;;;;5060597;28;20250;-68
2023/05/23 05:03:03;;;;;;;112.17;4.07;;;21.60;49.40;;;;;;5051289;28;20172;-69
2023/05/23 05:05:29;;;;;;;110.63;4.83;;;21.60;49.70;;;;;;5049358;28;20635;-68
2023/05/23 05:07:54;;;;;;;109.90;4.10;;;21.60;49.40;;;;;;5031954;28;20179;-69
2023/05/23 05:10:20;;;;;;;109.00;3.63;;;21.50;49.90;;;;;;5031840;28;20173;-69
2023/05/23 05:12:48;;;;;;;109.20;3.80;;;21.20;51.80;;;;;;5031260;28;20226;-69
2023/05/23 05:15:17;;;;;;;111.37;4.50;;;21.10;51.50;;;;;;5031985;28;20215;-68
2023/05/23 05:17:43;;;;;;;111.73;4.37;;;20.40;54.90;;;;;;5031673;28;20418;-69
2023/05/23 05:20:10;;;;;;;110.53;4.83;;;20.20;57.40;;;;;;5032007;28;20486;-69
2023/05/23 05:22:39;;;;;;;111.10;4.80;;;20.10;57.60;;;;;;5030751;28;20515;-68
2023/05/23 05:25:06;;;;;;;111.80;4.33;;;20.20;57.90;;;;;;5031820;28;20407;-68
2023/05/23 05:27:32;;;;;;;111.17;5.00;;;19.90;58.90;;;;;;5031586;28;20437;-68
2023/05/23 05:30:02;;;;;;;118.63;5.03;;;19.90;59.50;;;;;;5031604;28;20408;-68
2023/05/23 05:32:30;;;;;;;110.13;4.53;;;19.70;59.80;;;;;;5031531;28;20439;-70
2023/05/23 05:34:55;;;;;;;109.67;3.77;;;19.50;61.70;;;;;;5031540;28;20502;-69
2023/05/23 05:37:21;;;;;;;110.20;4.60;;;19.20;66.60;;;;;;5031704;28;20971;-71
2023/05/23 05:39:47;;;;;;;111.67;4.50;;;19.20;66.10;;;;;;5031690;28;20241;-69
2023/05/23 05:42:12;;;;;;;110.33;4.37;;;19.20;66.20;;;;;;5031681;28;20175;-69
2023/05/23 05:44:38;;;;;;;110.97;4.43;;;19.30;65.50;;;;;;5031050;28;20168;-69
2023/05/23 05:47:04;;;;;;;111.40;5.00;;;19.10;66.00;;;;;;5031505;28;20196;-69
2023/05/23 05:49:30;;;;;;;110.37;4.37;;;19.10;68.60;;;;;;5031567;28;20616;-70
2023/05/23 05:51:55;;;;;;;111.70;4.90;;;19.50;65.30;;;;;;5031613;28;21048;-69
2023/05/23 05:54:21;;;;;;;109.30;4.00;;;19.60;63.10;;;;;;5030784;28;20176;-69
2023/05/23 05:56:46;;;;;;;109.70;4.40;;;19.70;63.10;;;;;;5031730;28;20228;-69
2023/05/23 05:59:12;;;;;;;109.47;4.20;;;19.80;62.20;;;;;;5031508;28;20175;-69
2023/05/23 06:01:38;;;;;;;115.87;5.57;;;19.70;64.10;;;;;;5031546;28;20204;-69
2023/05/23 06:04:03;;;;;;;109.57;4.10;;;20.00;61.80;;;;;;5030773;28;20171;-69
2023/05/23 06:06:30;;;;;;;108.90;3.90;;;20.10;60.40;;;;;;5031354;28;20660;-69
2023/05/23 06:08:56;;;;;;;123.23;6.60;;;20.10;60.30;;;;;;5031394;28;20281;-71
2023/05/23 06:11:21;;;;;;;114.63;5.43;;;20.30;58.80;;;;;;5031492;28;20958;-69
2023/05/23 06:13:47;;;;;;;109.20;4.17;;;22.30;60.00;;;;;;5030734;28;20230;-69
2023/05/23 06:16:13;;;;;;;112.70;5.70;;;20.40;58.20;;;;;;5031557;28;20284;-69
2023/05/23 06:18:39;;;;;;;110.27;4.87;;;20.50;58.40;;;;;;5031567;28;20260;-69
2023/05/23 06:21:05;;;;;;;110.97;4.60;;;20.30;59.60;;;;;;5031519;28;20453;-69
2023/05/23 06:23:31;;;;;;;112.90;5.27;;;20.40;59.30;;;;;;5030812;28;20417;-69
2023/05/23 06:25:58;;;;;;;112.17;5.87;;;20.40;58.20;;;;;;5031324;28;20247;-69
2023/05/23 06:28:24;;;;;;;113.90;5.23;;;20.00;61.20;;;;;;5031191;28;20199;-69
2023/05/23 06:30:49;;;;;;;109.30;4.23;;;19.70;64.00;;;;;;5031195;28;20923;-69
2023/05/23 06:33:15;;;;;;;113.17;5.37;;;20.00;62.40;;;;;;5030662;28;20176;-70
2023/05/23 06:35:41;;;;;;;110.60;4.37;;;20.00;61.90;;;;;;5031003;28;20569;-70
2023/05/23 06:38:07;;;;;;;109.97;4.40;;;20.10;61.40;;;;;;5032383;28;20910;-69
2023/05/23 06:40:33;;;;;;;113.10;5.13;;;20.00;62.10;;;;;;5034430;28;20660;-70
2023/05/23 06:42:58;;;;;;;109.57;4.37;;;20.40;60.90;;;;;;5033909;28;20774;-69
2023/05/23 06:45:24;;;;;;;111.10;4.70;;;20.20;61.40;;;;;;5034655;28;20174;-69
2023/05/23 06:47:50;;;;;;;109.27;4.10;;;20.30;61.30;;;;;;5034600;28;20176;-69
2023/05/23 06:50:18;;;;;;;109.97;4.50;;;20.30;60.10;;;;;;5034617;28;20544;-69
2023/05/23 06:52:45;;;;;;;111.80;6.03;;;20.20;60.90;;;;;;5033842;28;20417;-69
2023/05/23 06:55:17;;;;;;;109.90;4.57;;;19.90;62.60;;;;;;5034265;28;20419;-71
2023/05/23 06:57:43;;;;;;;113.73;4.77;;;19.90;63.60;;;;;;5034310;28;20906;-69
2023/05/23 07:00:09;;;;;;;109.43;4.30;;;19.80;63.10;;;;;;5033066;28;20460;-69
2023/05/23 07:02:35;;;;;;;113.87;4.73;;;19.80;62.00;;;;;;5033465;28;20447;-70
2023/05/23 07:05:00;;;;;;;112.13;5.03;;;19.60;63.80;;;;;;5034474;28;20405;-69
2023/05/23 07:07:26;;;;;;;110.33;5.10;;;19.90;62.00;;;;;;5034159;28;20563;-69
2023/05/23 07:09:52;;;;;;;110.90;5.17;;;19.80;61.50;;;;;;5034231;28;20178;-69
2023/05/23 07:12:17;;;;;;;110.47;5.37;;;19.80;62.30;;;;;;5034063;28;20561;-71
2023/05/23 07:14:43;;;;;;;155.20;4.87;;;19.90;61.20;;;;;;5033310;28;20244;-69
2023/05/23 07:17:08;;;;;;;111.60;4.73;;;19.90;61.30;;;;;;5034070;28;20549;-69
2023/05/23 07:19:34;;;;;;;113.90;5.10;;;20.10;61.40;;;;;;5034056;28;20179;-70
2023/05/23 07:21:59;;;;;;;111.97;5.60;;;20.30;59.70;;;;;;5034043;28;20216;-71
2023/05/23 07:24:25;;;;;;;111.07;4.83;;;20.40;58.20;;;;;;5033079;28;20576;-69
2023/05/23 07:26:51;;;;;;;110.73;4.93;;;20.50;57.70;;;;;;5033945;28;20251;-69
2023/05/23 07:29:16;;;;;;;109.23;4.30;;;20.40;57.50;;;;;;5033899;28;20560;-69
2023/05/23 07:31:42;;;;;;;109.07;4.53;;;20.20;58.60;;;;;;5033972;28;20641;-71
2023/05/23 07:34:07;;;;;;;110.77;5.27;;;20.30;59.80;;;;;;5033094;28;20222;-69
2023/05/23 07:36:34;;;;;;;111.20;5.70;;;20.50;58.40;;;;;;5033647;28;20294;-69
2023/05/23 07:39:00;;;;;;;109.57;4.50;;;20.60;58.10;;;;;;5033835;28;20182;-69
2023/05/23 07:41:26;;;;;;;111.10;5.43;;;20.50;58.30;;;;;;5033642;28;20982;-69
2023/05/23 07:43:51;;;;;;;109.63;4.80;;;20.20;59.80;;;;;;5033035;28;20401;-69
2023/05/23 07:46:17;;;;;;;112.43;5.03;;;20.40;59.90;;;;;;5033417;28;20189;-69
2023/05/23 07:48:43;;;;;;;110.50;5.10;;;20.30;59.40;;;;;;5033063;28;20208;-69
2023/05/23 07:51:08;;;;;;;110.27;5.17;;;19.90;60.70;;;;;;5032854;28;20182;-71
2023/05/23 07:53:38;;;;;;;109.17;4.50;;;19.80;62.50;;;;;;5032442;28;20211;-69
2023/05/23 07:56:04;;;;;;;110.57;5.40;;;18.10;61.20;;;;;;5033243;28;20211;-69
2023/05/23 07:58:30;;;;;;;112.60;6.00;;;19.90;61.80;;;;;;5031399;28;20420;-69
2023/05/23 08:00:56;;;;;;;111.00;5.40;;;19.60;63.10;;;;;;5033040;28;20463;-69
2023/05/23 08:03:22;;;;;;;112.10;5.53;;;19.60;63.00;;;;;;5032744;28;20166;-69
2023/05/23 08:05:48;;;;;;;114.13;5.83;;;19.60;65.40;;;;;;5031727;28;20439;-69
2023/05/23 08:08:15;;;;;;;110.87;4.97;;;20.30;60.50;;;;;;5032894;28;20170;-69
2023/05/23 08:10:40;;;;;;;108.60;4.40;;;20.20;58.10;;;;;;5032868;28;20420;-69
2023/05/23 08:13:09;;;;;;;110.40;4.30;;;20.00;57.40;;;;;;5032583;28;20404;-69
2023/05/23 08:15:34;;;;;;;110.20;4.47;;;19.40;61.00;;;;;;5032934;28;20678;-69
2023/05/23 08:18:00;;;;;;;110.20;4.73;;;19.20;61.20;;;;;;5033030;28;20409;-69
2023/05/23 08:20:29;;;;;;;114.57;5.20;;;19.10;62.00;;;;;;5032829;28;20196;-69
2023/05/23 08:23:00;;;;;;;108.80;4.43;;;19.00;62.40;;;;;;5032126;28;20179;-70
2023/05/23 08:25:30;;;;;;;109.17;4.33;;;19.10;61.40;;;;;;5032819;28;20422;-69
2023/05/23 08:28:00;;;;;;;108.97;4.47;;;19.00;61.90;;;;;;5032487;28;20879;-69
2023/05/23 08:30:26;;;;;;;114.47;5.30;;;19.30;60.30;;;;;;5032279;28;20473;-70
2023/05/23 08:32:54;;;;;;;109.50;4.20;;;19.00;60.80;;;;;;5032028;28;20465;-69
2023/05/23 08:35:20;;;;;;;111.50;4.73;;;19.00;60.60;;;;;;5032514;28;20469;-71
2023/05/23 08:37:46;;;;;;;108.90;4.27;;;19.20;58.60;;;;;;5032648;28;20410;-71
2023/05/23 08:40:17;;;;;;;108.07;3.80;;;18.80;61.50;;;;;;5032435;28;20453;-71
2023/05/23 08:42:42;;;;;;;110.87;5.20;;;18.90;61.00;;;;;;5031973;28;20410;-69
2023/05/23 08:45:09;;;;;;;107.87;3.77;;;19.00;59.50;;;;;;5032442;28;20403;-70
2023/05/23 08:47:37;;;;;;;108.97;4.67;;;19.00;59.70;;;;;;5032805;28;20191;-69
2023/05/23 08:50:06;;;;;;;110.53;4.50;;;18.80;60.00;;;;;;5032349;28;20415;-70
2023/05/23 08:52:34;;;;;;;108.20;4.23;;;18.80;57.60;;;;;;5031618;28;20408;-69
2023/05/23 08:55:01;;;;;;;108.70;4.20;;;18.70;60.20;;;;;;5032225;28;20418;-69
2023/05/23 08:57:29;;;;;;;109.37;4.17;;;19.20;57.00;;;;;;5032113;28;20493;-70
2023/05/23 08:59:55;;;;;;;107.50;3.97;;;19.80;53.80;;;;;;5031605;28;20444;-69
2023/05/23 09:02:21;;;;;;;108.30;4.13;;;20.00;52.50;;;;;;5031940;28;20410;-70
2023/05/23 09:04:47;;;;;;;107.77;4.10;;;20.10;53.10;;;;;;5031579;28;20754;-69
2023/05/23 09:07:15;;;;;;;108.00;4.07;;;20.30;50.70;;;;;;5032100;28;20423;-70
2023/05/23 09:09:41;;;;;;;110.13;4.33;;;20.10;51.20;;;;;;5031987;28;20284;-69
2023/05/23 09:12:09;;;;;;;108.03;3.67;;;19.60;53.70;;;;;;5031834;28;20849;-70
2023/05/23 09:14:36;;;;;;;108.40;4.23;;;20.10;51.10;;;;;;5031354;28;20407;-71
2023/05/23 09:17:01;;;;;;;110.60;4.37;;;19.30;52.90;;;;;;5031997;28;20431;-69
2023/05/23 09:19:27;;;;;;;107.10;3.90;;;18.80;56.30;;;;;;5031857;28;20494;-70
2023/05/23 09:21:53;;;;;;;108.37;4.77;;;19.20;55.80;;;;;;5031890;28;20200;-70
2023/05/23 09:24:20;;;;;;;117.40;4.73;;;19.10;53.70;;;;;;5031127;28;20419;-70
2023/05/23 09:26:47;;;;;;;107.70;4.13;;;18.70;56.70;;;;;;5031644;28;20969;-69
2023/05/23 09:29:12;;;;;;;107.57;4.13;;;18.20;59.30;;;;;;5031584;28;20780;-70
2023/05/23 09:31:38;;;;;;;107.03;3.83;;;18.50;57.30;;;;;;5031733;28;20403;-69
2023/05/23 09:34:04;;;;;;;109.97;3.20;;;18.40;56.40;;;;;;5031029;28;20180;-69
2023/05/23 09:36:35;;;;;;;108.77;4.30;;;18.60;55.20;;;;;;5031458;28;20311;-70
2023/05/23 09:39:07;;;;;;;108.30;4.20;;;18.70;53.90;;;;;;5031823;28;20699;-69
2023/05/23 09:41:35;;;;;;;107.67;4.30;;;18.50;54.10;;;;;;5031567;28;20447;-69
2023/05/23 09:44:07;;;;;;;107.40;4.07;;;18.50;54.80;;;;;;5031009;28;20914;-69
2023/05/23 09:46:35;;;;;;;108.30;4.10;;;18.60;55.00;;;;;;5031358;28;20516;-69
2023/05/23 09:49:01;;;;;;;108.03;4.03;;;19.00;54.20;;;;;;5031669;28;20414;-71
2023/05/23 09:51:28;;;;;;;106.37;3.50;;;19.40;50.90;;;;;;5031612;28;20936;-69
2023/05/23 09:53:55;;;;;;;106.87;4.00;;;18.80;54.10;;;;;;5031041;28;20177;-69
2023/05/23 09:56:23;;;;;;;109.10;4.80;;;18.50;55.10;;;;;;5031471;28;20834;-69
2023/05/23 09:58:52;;;;;;;108.77;4.43;;;18.70;55.90;;;;;;5031017;28;20411;-70
2023/05/23 10:01:19;;;;;;;107.30;3.93;;;19.10;52.60;;;;;;5031711;28;20447;-69
2023/05/23 10:03:50;;;;;;;106.00;3.43;;;18.90;53.00;;;;;;5030851;28;20962;-69
2023/05/23 10:06:25;;;;;;;106.27;3.20;;;18.80;53.50;;;;;;5031335;28;20953;-70
2023/05/23 10:08:58;;;;;;;108.10;4.47;;;19.30;52.20;;;;;;5031250;28;20403;-69
2023/05/23 10:11:32;;;;;;;106.57;3.67;;;19.50;51.90;;;;;;5031400;28;20418;-69
2023/05/23 10:14:07;;;;;;;107.60;4.13;;;19.40;50.20;;;;;;5032325;28;20795;-70
2023/05/23 10:16:41;;;;;;;106.00;3.53;;;19.30;50.60;;;;;;5034911;28;20429;-69
2023/05/23 10:19:20;;;;;;;105.70;3.30;;;19.30;50.10;;;;;;5035185;28;20480;-69
2023/05/23 10:21:54;;;;;;;107.60;4.40;;;19.50;48.70;;;;;;5034918;28;20462;-70
2023/05/23 10:24:21;;;;;;;107.40;4.43;;;19.60;49.40;;;;;;5034410;28;20870;-69
2023/05/23 10:26:47;;;;;;;105.77;3.23;;;19.90;48.00;;;;;;5034922;28;20846;-70
2023/05/23 10:29:13;;;;;;;106.00;3.43;;;20.10;47.60;;;;;;5034949;28;20426;-69
2023/05/23 10:31:39;;;;;;;108.00;4.70;;;20.20;46.70;;;;;;5034714;28;20407;-70
2023/05/23 10:34:24;;;;;;;106.83;3.90;;;19.80;47.10;;;;;;5034186;28;20177;-69
2023/05/23 10:37:00;;;;;;;108.07;3.97;;;20.10;46.70;;;;;;5034725;28;20759;-69
2023/05/23 10:39:47;;;;;;;108.17;4.07;;;20.30;44.80;;;;;;5034835;28;20398;-70
2023/05/23 10:42:48;;;;;;;106.53;3.83;;;20.00;45.90;;;;;;5034659;28;20447;-70
2023/05/23 10:45:23;;;;;;;107.27;3.30;;;19.90;46.20;;;;;;5034764;28;20416;-69
2023/05/23 10:47:51;;;;;;;106.63;4.10;;;19.60;47.80;;;;;;5034608;28;20437;-70
2023/05/23 10:50:33;;;;;;;106.27;4.03;;;19.50;49.30;;;;;;5034636;28;20406;-71
2023/05/23 10:53:04;;;;;;;105.87;3.80;;;19.30;48.40;;;;;;5033746;28;20452;-70
2023/05/23 10:55:35;;;;;;;105.40;3.40;;;19.60;49.50;;;;;;5034064;28;20410;-70
2023/05/23 10:58:18;;;;;;;106.00;3.77;;;19.90;47.10;;;;;;5034494;28;20403;-69
2023/05/23 11:00:55;;;;;;;105.57;3.67;;;20.50;45.70;;;;;;5067435;22;20566;-70
2023/05/23 11:03:47;;;;;;;107.00;4.53;;;21.20;45.00;;;;;;5050307;28;20510;-71
2023/05/23 11:06:32;;;;;;;105.83;3.40;;;21.50;43.00;;;;;;5053747;28;20402;-72
2023/05/23 11:09:08;;;;;;;105.33;3.20;;;21.60;41.80;;;;;;5054145;28;20418;-71
2023/05/23 11:12:06;;;;;;;105.80;3.50;;;21.70;41.40;;;;;;5053599;28;20435;-70
2023/05/23 11:14:32;;;;;;;109.33;4.07;;;22.00;39.90;;;;;;5010803;28;20425;-70
2023/05/23 11:17:15;;;;;;;105.10;3.37;;;22.30;38.90;;;;;;5011530;28;20418;-71
2023/05/23 11:20:04;;;;;;;105.37;3.43;;;22.60;39.20;;;;;;5011566;28;20197;-70
2023/05/23 11:22:31;;;;;;;106.20;3.83;;;22.40;38.30;;;;;;5010666;28;20529;-74
2023/05/23 11:24:57;;;;;;;106.07;3.43;;;22.60;39.90;;;;;;5011170;28;20419;-71
2023/05/23 11:27:45;;;;;;;106.83;4.00;;;22.00;38.00;;;;;;5011412;28;20894;-70
2023/05/23 11:30:13;;;;;;;106.37;3.90;;;21.50;40.00;;;;;;5011482;28;20454;-70
2023/05/23 11:32:39;;;;;;;106.00;3.40;;;21.80;39.10;;;;;;4993898;28;20436;-70
2023/05/23 11:35:06;;;;;;;105.27;4.10;;;21.20;40.20;;;;;;4994578;28;20442;-70
2023/05/23 11:37:32;;;;;;;104.97;3.60;;;20.80;41.80;;;;;;4994801;28;20432;-71
2023/05/23 11:39:59;;;;;;;108.33;3.70;;;20.50;42.90;;;;;;5011290;28;20517;-70
2023/05/23 11:42:24;;;;;;;105.13;3.97;;;20.60;43.00;;;;;;5011085;28;21023;-70
2023/05/23 11:44:51;;;;;;;105.87;3.97;;;20.60;43.20;;;;;;5010623;28;20424;-71
2023/05/23 11:47:17;;;;;;;104.70;3.27;;;21.50;43.70;;;;;;5010801;28;20230;-70
2023/05/23 11:49:48;;;;;;;103.87;3.10;;;21.30;40.10;;;;;;5025451;28;20938;-71
2023/05/23 11:52:14;;;;;;;104.60;3.40;;;21.40;39.20;;;;;;5053137;28;20429;-70
2023/05/23 11:54:43;;;;;;;105.00;3.50;;;21.70;39.50;;;;;;5052170;28;20794;-71
2023/05/23 11:57:09;;;;;;;103.80;2.97;;;21.80;39.20;;;;;;5052983;28;20413;-70
2023/05/23 11:59:36;;;;;;;104.50;3.70;;;22.00;39.20;;;;;;5052854;28;20401;-71
2023/05/23 12:02:02;;;;;;;104.03;3.37;;;22.60;40.30;;;;;;5052079;28;20544;-70
2023/05/23 12:04:28;;;;;;;104.57;3.87;;;22.40;36.10;;;;;;5052231;28;20417;-70
2023/05/23 12:06:53;;;;;;;103.87;3.27;;;22.10;37.50;;;;;;5052751;28;20416;-70
2023/05/23 12:09:19;;;;;;;106.27;4.10;;;21.90;37.50;;;;;;5052790;28;20642;-71
2023/05/23 12:11:45;;;;;;;104.90;4.03;;;21.80;36.90;;;;;;5052643;28;20204;-71
2023/05/23 12:14:15;;;;;;;103.77;3.30;;;21.30;38.90;;;;;;5050527;28;20180;-71
2023/05/23 12:16:44;;;;;;;107.50;4.00;;;21.40;37.60;;;;;;5052556;28;20659;-72
2023/05/23 12:19:10;;;;;;;103.47;3.30;;;21.20;38.50;;;;;;5051273;28;20426;-70
2023/05/23 12:21:47;;;;;;;104.20;3.37;;;21.60;37.30;;;;;;5052419;28;20458;-71
2023/05/23 12:24:16;;;;;;;105.67;3.80;;;21.90;38.60;;;;;;5051774;28;20175;-70
2023/05/23 12:26:52;;;;;;;104.57;3.57;;;22.50;37.00;;;;;;5052293;28;20409;-71
2023/05/23 12:29:27;;;;;;;103.63;3.40;;;23.00;35.30;;;;;;5052495;28;20404;-71
2023/05/23 12:31:52;;;;;;;104.13;3.27;;;23.50;35.40;;;;;;5051970;28;20417;-70